Time;durP1;ratioP1;P1;durP2;ratioP2;P2;SDS_P1;SDS_P2;PMS_P1;PMS_P2;Temp;Humidity;BMP_temperature;BMP_pressure;BME280_temperature;BME280_humidity;BME280_pressure;Samples;Min_cycle;Max_cycle;Signal;HPM_P1;HPM_P2
2023/06/27 00:02:00;;;;;;;10.68;3.28;;;16.20;99.90;;;;;;5056454;28;20275;-73
2023/06/27 00:04:28;;;;;;;5.07;3.10;;;16.20;99.90;;;;;;5046208;28;20274;-74
2023/06/27 00:06:55;;;;;;;11.10;3.97;;;16.20;99.90;;;;;;5061249;28;20690;-74
2023/06/27 00:09:22;;;;;;;13.68;3.90;;;16.20;99.90;;;;;;5063801;28;20210;-75
2023/06/27 00:11:49;;;;;;;7.93;3.53;;;16.20;99.90;;;;;;5064367;28;20232;-76
2023/06/27 00:14:19;;;;;;;7.78;3.17;;;16.20;99.90;;;;;;5062174;28;20220;-74
2023/06/27 00:16:47;;;;;;;9.35;3.63;;;16.10;99.90;;;;;;5066221;28;20238;-74
2023/06/27 00:19:13;;;;;;;7.13;3.35;;;16.10;99.90;;;;;;5061138;28;20587;-74
2023/06/27 00:21:40;;;;;;;9.57;3.65;;;16.20;99.90;;;;;;5070150;28;20283;-73
2023/06/27 00:24:07;;;;;;;10.65;4.20;;;16.20;99.90;;;;;;5067660;28;20252;-75
2023/06/27 00:26:35;;;;;;;9.95;3.55;;;16.10;99.90;;;;;;5054463;28;20283;-74
2023/06/27 00:29:02;;;;;;;9.55;3.90;;;16.10;99.90;;;;;;5058084;28;20248;-73
2023/06/27 00:31:30;;;;;;;10.00;4.00;;;16.10;99.90;;;;;;5052302;28;20208;-74
2023/06/27 00:33:57;;;;;;;9.75;4.00;;;16.10;99.90;;;;;;5063648;28;20322;-74
2023/06/27 00:36:24;;;;;;;13.57;6.05;;;16.10;99.90;;;;;;5060795;28;20219;-74
2023/06/27 00:38:51;;;;;;;10.40;3.95;;;16.10;99.90;;;;;;5058346;28;20267;-72
2023/06/27 00:41:20;;;;;;;5.72;3.50;;;16.00;99.90;;;;;;5048772;28;20201;-74
2023/06/27 00:43:47;;;;;;;5.75;2.78;;;16.00;99.90;;;;;;5061669;28;20235;-74
2023/06/27 00:46:24;;;;;;;9.32;3.28;;;16.00;99.90;;;;;;5062539;28;20191;-72
2023/06/27 00:48:52;;;;;;;8.75;2.70;;;15.90;99.90;;;;;;5059568;28;20659;-72
2023/06/27 00:51:19;;;;;;;9.85;3.42;;;16.00;99.90;;;;;;5054952;28;20305;-74
2023/06/27 00:53:48;;;;;;;8.55;2.90;;;15.90;99.90;;;;;;5057105;28;20759;-74
2023/06/27 00:56:15;;;;;;;7.88;3.60;;;15.90;99.90;;;;;;5051555;28;20215;-74
2023/06/27 00:58:42;;;;;;;9.80;3.80;;;16.00;99.90;;;;;;5064817;28;20248;-74
2023/06/27 01:01:09;;;;;;;12.13;3.83;;;15.90;99.90;;;;;;5051579;28;20254;-74
2023/06/27 01:03:36;;;;;;;9.15;3.75;;;15.90;99.90;;;;;;5064778;28;20715;-75
2023/06/27 01:06:10;;;;;;;8.00;3.65;;;15.90;99.90;;;;;;5053559;28;20397;-75
2023/06/27 01:08:42;;;;;;;7.03;2.78;;;15.90;99.90;;;;;;5061934;28;20210;-74
2023/06/27 01:11:15;;;;;;;10.40;3.53;;;15.80;99.90;;;;;;5060500;28;20294;-76
2023/06/27 01:13:47;;;;;;;14.98;3.10;;;15.70;99.90;;;;;;5058350;28;20771;-73
2023/06/27 01:16:15;;;;;;;7.25;3.10;;;15.70;99.90;;;;;;5059518;28;20307;-74
2023/06/27 01:18:44;;;;;;;5.15;2.95;;;15.70;99.90;;;;;;5056853;28;20201;-75
2023/06/27 01:21:12;;;;;;;6.35;3.15;;;15.70;99.90;;;;;;5046951;28;20229;-73
2023/06/27 01:23:50;;;;;;;6.43;3.40;;;15.70;99.90;;;;;;5060191;28;20624;-74
2023/06/27 01:26:17;;;;;;;7.70;3.50;;;15.70;99.90;;;;;;5057270;28;20223;-73
2023/06/27 01:28:44;;;;;;;7.00;3.25;;;15.70;99.90;;;;;;5061396;28;20193;-74
2023/06/27 01:31:17;;;;;;;6.57;2.97;;;15.70;99.90;;;;;;5055781;28;20199;-74
2023/06/27 01:33:53;;;;;;;9.68;3.47;;;15.70;99.90;;;;;;5049133;28;20231;-77
2023/06/27 01:36:23;;;;;;;10.07;3.65;;;15.70;99.90;;;;;;5056997;28;20330;-74
2023/06/27 01:38:57;;;;;;;6.22;2.72;;;15.60;99.90;;;;;;5058829;28;20620;-74
2023/06/27 01:41:56;;;;;;;6.25;2.30;;;15.60;99.90;;;;;;5051743;28;20741;-73
2023/06/27 01:44:24;;;;;;;6.57;3.20;;;15.60;99.90;;;;;;5051630;28;20298;-72
2023/06/27 01:46:53;;;;;;;7.85;3.65;;;15.60;99.90;;;;;;5062880;28;20563;-75
2023/06/27 01:49:20;;;;;;;5.43;3.28;;;15.50;99.90;;;;;;5069567;28;20195;-73
2023/06/27 01:51:47;;;;;;;6.95;2.67;;;15.50;99.90;;;;;;5066270;28;20219;-73
2023/06/27 01:54:15;;;;;;;6.47;3.08;;;15.50;99.90;;;;;;5051239;28;20224;-74
2023/06/27 01:56:42;;;;;;;10.65;2.97;;;15.40;99.90;;;;;;5060222;28;20234;-74
2023/06/27 01:59:09;;;;;;;6.65;3.55;;;15.40;99.90;;;;;;5061963;28;20203;-75
2023/06/27 02:01:36;;;;;;;8.90;2.67;;;15.50;99.90;;;;;;5060415;28;20208;-75
2023/06/27 02:04:03;;;;;;;6.32;3.50;;;15.40;99.90;;;;;;5061248;28;20244;-74
2023/06/27 02:06:32;;;;;;;10.05;2.95;;;15.40;99.90;;;;;;5053876;28;20709;-73
2023/06/27 02:08:59;;;;;;;6.82;2.80;;;15.50;99.90;;;;;;5053059;28;20226;-75
2023/06/27 02:11:27;;;;;;;6.63;2.55;;;15.40;99.90;;;;;;5065774;28;20307;-74
2023/06/27 02:13:54;;;;;;;4.95;2.90;;;15.40;99.90;;;;;;5063942;28;20234;-74
2023/06/27 02:16:22;;;;;;;8.85;3.58;;;15.30;99.90;;;;;;5058685;28;20604;-74
2023/06/27 02:18:49;;;;;;;8.45;3.40;;;15.40;99.90;;;;;;5063912;28;20665;-73
2023/06/27 02:21:15;;;;;;;7.85;4.18;;;15.40;99.90;;;;;;5065701;28;20196;-74
2023/06/27 02:23:42;;;;;;;9.07;3.05;;;15.40;99.90;;;;;;5063067;28;20589;-73
2023/06/27 02:26:10;;;;;;;7.50;3.40;;;15.40;99.90;;;;;;5056676;28;20238;-74
2023/06/27 02:28:38;;;;;;;10.75;3.63;;;15.30;99.90;;;;;;5065119;28;20203;-75
2023/06/27 02:31:05;;;;;;;12.75;4.05;;;15.20;99.90;;;;;;5056261;28;20238;-75
2023/06/27 02:33:32;;;;;;;6.75;3.45;;;15.20;99.90;;;;;;5063055;28;20226;-75
2023/06/27 02:35:59;;;;;;;6.40;3.35;;;15.10;99.90;;;;;;5065183;28;20639;-73
2023/06/27 02:38:25;;;;;;;7.43;3.10;;;15.10;99.90;;;;;;5059831;28;20725;-74
2023/06/27 02:40:54;;;;;;;6.53;3.92;;;15.10;99.90;;;;;;5054499;28;20290;-73
2023/06/27 02:43:20;;;;;;;8.55;3.03;;;15.00;99.90;;;;;;5054204;28;20868;-75
2023/06/27 02:45:49;;;;;;;6.15;3.40;;;15.00;99.90;;;;;;5057614;28;20213;-75
2023/06/27 02:48:16;;;;;;;4.45;2.90;;;15.00;99.90;;;;;;5058597;28;20206;-73
2023/06/27 02:50:46;;;;;;;4.35;3.15;;;15.00;99.90;;;;;;5060352;28;20229;-74
2023/06/27 02:53:12;;;;;;;7.53;3.50;;;15.00;99.90;;;;;;5061925;28;20708;-74
2023/06/27 02:55:40;;;;;;;6.10;3.83;;;15.00;99.90;;;;;;5057883;28;20211;-73
2023/06/27 02:58:06;;;;;;;6.18;4.07;;;14.90;99.90;;;;;;5050041;28;20673;-73
2023/06/27 03:00:34;;;;;;;7.78;3.78;;;14.90;99.90;;;;;;5052948;28;20653;-74
2023/06/27 03:03:02;;;;;;;6.97;2.72;;;14.90;99.90;;;;;;5052351;28;20318;-75
2023/06/27 03:05:29;;;;;;;7.28;3.30;;;14.90;99.90;;;;;;5054413;28;20200;-75
2023/06/27 03:07:56;;;;;;;8.02;3.58;;;14.90;99.90;;;;;;5052315;28;20215;-75
2023/06/27 03:10:22;;;;;;;7.97;3.38;;;14.90;99.90;;;;;;5057369;28;20203;-75
2023/06/27 03:12:50;;;;;;;5.03;3.65;;;14.90;99.90;;;;;;5052502;28;20220;-75
2023/06/27 03:15:17;;;;;;;5.35;3.65;;;15.00;99.90;;;;;;5055827;28;20296;-75
2023/06/27 03:17:44;;;;;;;5.93;3.20;;;14.90;99.90;;;;;;5063786;28;20264;-75
2023/06/27 03:20:13;;;;;;;5.88;3.22;;;14.90;99.90;;;;;;5064541;28;20242;-74
2023/06/27 03:22:40;;;;;;;7.15;3.53;;;14.90;99.90;;;;;;5067903;28;20249;-72
2023/06/27 03:25:10;;;;;;;6.85;3.97;;;14.90;99.90;;;;;;5058562;28;20203;-74
2023/06/27 03:27:40;;;;;;;5.70;3.53;;;14.70;99.90;;;;;;5060620;28;20226;-74
2023/06/27 03:30:11;;;;;;;7.88;4.53;;;14.90;99.90;;;;;;5070368;28;20216;-73
2023/06/27 03:32:38;;;;;;;5.80;3.70;;;14.80;99.90;;;;;;5053575;28;20222;-74
2023/06/27 03:35:06;;;;;;;7.97;3.42;;;14.90;99.90;;;;;;5055769;28;20238;-74
2023/06/27 03:37:35;;;;;;;5.22;3.22;;;14.90;99.90;;;;;;5044686;28;20667;-75
2023/06/27 03:40:03;;;;;;;9.60;3.88;;;14.90;99.90;;;;;;5058361;28;20258;-76
2023/06/27 03:42:30;;;;;;;8.82;3.45;;;14.90;99.90;;;;;;5054116;28;20220;-76
2023/06/27 03:44:58;;;;;;;8.88;3.90;;;14.90;99.90;;;;;;5055906;28;20196;-75
2023/06/27 03:47:25;;;;;;;6.40;3.65;;;14.90;99.90;;;;;;5057518;28;20209;-74
2023/06/27 03:49:54;;;;;;;7.43;4.28;;;14.90;99.90;;;;;;5066685;28;20245;-74
2023/06/27 03:52:21;;;;;;;4.35;3.47;;;14.90;99.90;;;;;;5060296;28;20295;-76
2023/06/27 03:54:49;;;;;;;6.80;3.67;;;15.00;99.90;;;;;;5056958;28;20212;-75
2023/06/27 03:57:16;;;;;;;5.78;3.85;;;15.10;99.90;;;;;;5058216;28;20203;-76
2023/06/27 03:59:44;;;;;;;4.28;3.17;;;15.10;99.90;;;;;;5046810;28;20291;-76
2023/06/27 04:02:11;;;;;;;7.75;3.65;;;15.30;99.90;;;;;;5062453;28;20613;-75
2023/06/27 04:04:40;;;;;;;4.93;3.20;;;15.30;99.90;;;;;;5056799;28;20290;-75
2023/06/27 04:07:07;;;;;;;5.47;3.45;;;15.50;99.90;;;;;;5049065;28;20211;-75
2023/06/27 04:09:34;;;;;;;4.70;3.72;;;15.90;99.90;;;;;;5067761;28;20203;-73
2023/06/27 04:12:02;;;;;;;7.90;3.03;;;16.20;99.90;;;;;;5060151;28;20213;-75
2023/06/27 04:14:30;;;;;;;6.22;3.33;;;16.60;99.90;;;;;;5060877;28;20216;-75
2023/06/27 04:16:57;;;;;;;10.60;4.00;;;17.00;99.90;;;;;;5060771;28;20200;-73
2023/06/27 04:19:24;;;;;;;6.97;3.45;;;17.40;99.90;;;;;;5064828;28;20197;-72
2023/06/27 04:21:51;;;;;;;6.13;3.03;;;17.90;99.90;;;;;;5053056;28;20634;-72
2023/06/27 04:24:18;;;;;;;5.50;3.20;;;18.30;99.90;;;;;;5067069;28;20464;-72
2023/06/27 04:26:45;;;;;;;10.30;4.73;;;18.90;99.90;;;;;;5061929;28;20526;-73
2023/06/27 04:29:14;;;;;;;2.90;2.33;;;19.40;99.90;;;;;;5066226;28;20985;-74
2023/06/27 04:31:41;;;;;;;7.17;3.00;;;19.80;99.90;;;;;;5059249;28;20445;-75
2023/06/27 04:34:08;;;;;;;3.13;2.20;;;20.40;99.90;;;;;;5060492;28;20462;-73
2023/06/27 04:36:36;;;;;;;3.83;3.07;;;20.80;99.90;;;;;;5052224;28;20461;-75
2023/06/27 04:39:05;;;;;;;3.63;2.53;;;21.00;99.90;;;;;;5056139;28;20823;-74
2023/06/27 04:41:32;;;;;;;7.10;2.93;;;21.00;99.90;;;;;;5054402;28;20796;-73
2023/06/27 04:43:59;;;;;;;5.37;2.53;;;21.00;99.90;;;;;;5064293;28;20468;-74
2023/06/27 04:46:28;;;;;;;6.93;2.70;;;21.00;99.90;;;;;;5068181;28;20439;-73
2023/06/27 04:48:56;;;;;;;4.33;2.70;;;20.90;99.90;;;;;;5059459;28;20506;-74
2023/06/27 04:51:24;;;;;;;6.47;2.50;;;20.50;99.90;;;;;;5059810;28;20582;-75
2023/06/27 04:53:51;;;;;;;3.43;2.43;;;21.00;99.90;;;;;;5068119;28;20881;-73
2023/06/27 04:56:18;;;;;;;8.23;2.60;;;21.70;99.90;;;;;;5069223;28;20857;-73
2023/06/27 04:58:45;;;;;;;4.93;2.33;;;22.50;99.10;;;;;;5061262;28;20854;-74
2023/06/27 05:01:12;;;;;;;4.10;2.50;;;23.20;96.10;;;;;;5065349;28;20529;-74
2023/06/27 05:03:41;;;;;;;6.90;2.97;;;23.60;94.70;;;;;;5058901;28;20449;-73
2023/06/27 05:06:08;;;;;;;4.90;3.17;;;24.40;93.00;;;;;;5056660;28;20454;-74
2023/06/27 05:08:37;;;;;;;4.90;2.57;;;25.10;91.50;;;;;;5058460;28;20540;-75
2023/06/27 05:11:04;;;;;;;2.90;2.20;;;25.60;90.20;;;;;;5058102;28;20543;-73
2023/06/27 05:13:31;;;;;;;3.90;2.60;;;25.90;87.70;;;;;;5050704;28;20529;-75
2023/06/27 05:15:58;;;;;;;4.80;3.07;;;26.10;86.90;;;;;;5056865;28;20490;-74
2023/06/27 05:18:26;;;;;;;5.63;3.53;;;26.50;85.50;;;;;;5056847;28;20447;-72
2023/06/27 05:20:55;;;;;;;3.93;2.60;;;26.80;84.30;;;;;;5056431;28;20960;-74
2023/06/27 05:23:23;;;;;;;7.57;2.57;;;27.20;83.30;;;;;;5051269;28;20462;-74
2023/06/27 05:25:51;;;;;;;5.00;2.13;;;27.20;81.80;;;;;;5065434;28;20471;-74
2023/06/27 05:28:18;;;;;;;4.03;2.53;;;27.60;81.40;;;;;;5063426;28;20461;-77
2023/06/27 05:30:44;;;;;;;8.50;4.03;;;28.00;80.20;;;;;;5054238;28;20447;-77
2023/06/27 05:33:11;;;;;;;6.60;2.70;;;27.90;79.30;;;;;;5043933;28;20493;-75
2023/06/27 05:35:38;;;;;;;12.53;3.40;;;28.10;79.60;;;;;;5055150;28;20490;-74
2023/06/27 05:38:07;;;;;;;4.53;1.87;;;28.30;79.20;;;;;;5063980;28;20445;-75
2023/06/27 05:40:34;;;;;;;6.90;2.50;;;28.80;78.40;;;;;;5062226;28;20500;-76
2023/06/27 05:43:01;;;;;;;6.77;2.73;;;29.30;77.00;;;;;;5061324;28;20545;-75
2023/06/27 05:45:27;;;;;;;5.07;2.40;;;29.50;75.40;;;;;;5062444;28;20446;-73
2023/06/27 05:47:55;;;;;;;3.40;2.50;;;29.20;75.00;;;;;;5064944;28;20474;-72
2023/06/27 05:50:22;;;;;;;8.13;2.67;;;29.10;75.70;;;;;;5053882;28;20855;-73
2023/06/27 05:52:49;;;;;;;10.10;3.23;;;29.40;75.50;;;;;;5056832;28;20475;-73
2023/06/27 05:55:18;;;;;;;7.43;3.50;;;29.00;75.10;;;;;;5055124;28;20457;-74
2023/06/27 05:57:45;;;;;;;3.73;2.47;;;28.80;75.30;;;;;;5060846;28;20492;-74
2023/06/27 06:00:14;;;;;;;2.80;1.83;;;28.50;76.70;;;;;;5062065;28;20559;-75
2023/06/27 06:02:43;;;;;;;7.00;3.83;;;28.50;76.90;;;;;;5055567;28;21020;-74
2023/06/27 06:05:11;;;;;;;4.53;2.40;;;28.80;76.30;;;;;;5055065;28;20434;-73
2023/06/27 06:07:42;;;;;;;8.43;3.13;;;29.30;75.50;;;;;;5057542;28;20465;-73
2023/06/27 06:10:10;;;;;;;3.50;2.70;;;30.00;74.80;;;;;;5049537;28;20441;-75
2023/06/27 06:12:39;;;;;;;7.40;3.00;;;30.10;73.80;;;;;;5051017;28;20789;-77
2023/06/27 06:15:07;;;;;;;4.30;2.50;;;30.50;73.50;;;;;;5057065;28;20532;-74
2023/06/27 06:17:34;;;;;;;6.13;2.63;;;31.00;72.10;;;;;;5057209;28;20470;-74
2023/06/27 06:20:01;;;;;;;5.80;2.33;;;31.50;71.30;;;;;;5061269;28;20778;-75
2023/06/27 06:22:28;;;;;;;5.60;2.30;;;31.90;69.70;;;;;;5056901;28;20451;-74
2023/06/27 06:24:55;;;;;;;5.73;2.20;;;32.30;68.80;;;;;;5052709;28;20449;-75
2023/06/27 06:27:22;;;;;;;5.83;2.63;;;32.60;68.20;;;;;;5056399;28;20497;-74
2023/06/27 06:29:50;;;;;;;5.90;3.10;;;31.90;67.90;;;;;;5047916;28;21009;-75
2023/06/27 06:32:17;;;;;;;6.77;3.03;;;31.70;68.10;;;;;;5048822;28;21054;-74
2023/06/27 06:34:44;;;;;;;5.80;2.40;;;32.00;69.40;;;;;;5047238;28;20485;-75
2023/06/27 06:37:11;;;;;;;7.63;2.53;;;32.30;67.90;;;;;;5050843;28;20528;-75
2023/06/27 06:39:40;;;;;;;3.70;1.80;;;32.10;67.30;;;;;;5054504;28;20435;-74
2023/06/27 06:42:15;;;;;;;5.03;3.03;;;31.80;67.40;;;;;;5056593;28;20538;-73
2023/06/27 06:44:44;;;;;;;6.80;2.43;;;32.10;67.30;;;;;;5057324;28;20444;-73
2023/06/27 06:47:13;;;;;;;5.20;2.40;;;31.80;67.70;;;;;;5045003;28;20461;-75
2023/06/27 06:49:40;;;;;;;7.17;2.97;;;31.90;67.60;;;;;;5047902;28;20493;-74
2023/06/27 06:52:07;;;;;;;6.70;2.70;;;32.40;66.90;;;;;;5064868;28;20460;-74
2023/06/27 06:54:34;;;;;;;6.87;2.70;;;32.50;66.70;;;;;;5056301;28;20473;-74
2023/06/27 06:57:01;;;;;;;5.20;2.40;;;32.60;66.60;;;;;;5056455;28;20876;-73
2023/06/27 06:59:27;;;;;;;3.50;2.13;;;32.90;65.60;;;;;;5060584;28;21008;-74
2023/06/27 07:01:54;;;;;;;8.30;2.27;;;33.00;65.50;;;;;;5061432;28;20433;-74
2023/06/27 07:04:22;;;;;;;6.37;2.70;;;33.30;64.80;;;;;;5062082;28;20568;-75
2023/06/27 07:06:49;;;;;;;4.67;2.13;;;33.40;64.20;;;;;;5058963;28;20450;-74
2023/06/27 07:09:16;;;;;;;6.70;3.20;;;33.00;64.30;;;;;;5060968;28;20568;-74
2023/06/27 07:11:43;;;;;;;6.43;2.60;;;33.00;64.30;;;;;;5053971;28;20946;-75
2023/06/27 07:14:12;;;;;;;6.10;2.33;;;32.90;64.60;;;;;;5061110;28;20550;-74
2023/06/27 07:16:39;;;;;;;3.50;1.90;;;33.10;64.10;;;;;;5066129;28;20437;-75
2023/06/27 07:19:06;;;;;;;4.23;2.37;;;33.10;65.00;;;;;;5058465;28;20450;-74
2023/06/27 07:21:34;;;;;;;6.50;2.23;;;32.30;64.20;;;;;;5066104;28;20506;-74
2023/06/27 07:24:01;;;;;;;5.10;2.30;;;31.70;65.80;;;;;;5059420;28;20545;-75
2023/06/27 07:26:28;;;;;;;5.90;2.90;;;31.90;65.70;;;;;;5060288;28;20461;-75
2023/06/27 07:28:55;;;;;;;5.67;2.30;;;32.50;65.60;;;;;;5058648;28;20565;-75
2023/06/27 07:31:22;;;;;;;2.87;1.90;;;33.10;64.40;;;;;;5057046;28;20468;-75
2023/06/27 07:33:51;;;;;;;5.53;2.07;;;33.60;63.30;;;;;;5058501;28;20985;-73
2023/06/27 07:36:19;;;;;;;5.60;1.90;;;34.00;62.70;;;;;;5063372;28;20467;-75
2023/06/27 07:38:48;;;;;;;3.97;1.80;;;33.00;61.50;;;;;;5067580;28;20445;-75
2023/06/27 07:41:14;;;;;;;5.37;2.40;;;32.80;62.80;;;;;;5058281;28;20451;-75
2023/06/27 07:43:41;;;;;;;3.20;2.00;;;33.20;63.00;;;;;;5064009;28;20584;-75
2023/06/27 07:46:08;;;;;;;7.80;3.50;;;33.80;61.50;;;;;;5051330;28;20461;-78
2023/06/27 07:48:35;;;;;;;5.47;2.43;;;33.50;60.50;;;;;;5059805;28;20916;-75
2023/06/27 07:51:04;;;;;;;3.50;1.93;;;33.20;61.60;;;;;;5056539;28;20878;-75
2023/06/27 07:53:32;;;;;;;9.03;2.53;;;32.90;61.60;;;;;;5051324;28;20461;-76
2023/06/27 07:56:01;;;;;;;8.33;2.43;;;32.00;63.60;;;;;;5055136;28;20454;-75
2023/06/27 07:58:28;;;;;;;4.07;2.30;;;32.00;63.10;;;;;;5047840;28;20481;-76
2023/06/27 08:01:04;;;;;;;4.40;2.20;;;31.70;64.40;;;;;;5059315;28;20892;-77
2023/06/27 08:03:31;;;;;;;5.53;1.90;;;32.30;64.10;;;;;;5056268;28;20492;-75
2023/06/27 08:05:59;;;;;;;2.80;1.83;;;32.20;62.60;;;;;;5061954;28;20529;-75
2023/06/27 08:08:26;;;;;;;4.23;2.30;;;32.60;61.40;;;;;;5056694;28;20569;-77
2023/06/27 08:10:56;;;;;;;6.73;2.03;;;32.80;60.90;;;;;;5061581;28;20536;-76
2023/06/27 08:13:24;;;;;;;4.20;2.13;;;33.30;61.00;;;;;;5055696;28;20476;-75
2023/06/27 08:15:51;;;;;;;2.27;1.40;;;33.70;59.20;;;;;;5060945;28;20972;-75
2023/06/27 08:18:18;;;;;;;3.07;1.97;;;33.20;58.30;;;;;;5057914;28;21045;-76
2023/06/27 08:20:46;;;;;;;6.27;1.70;;;32.80;58.80;;;;;;5052905;28;20489;-75
2023/06/27 08:23:13;;;;;;;4.03;2.00;;;32.60;59.20;;;;;;5050746;28;20461;-75
2023/06/27 08:25:40;;;;;;;2.90;1.90;;;32.00;59.20;;;;;;5052396;28;20914;-74
2023/06/27 08:28:07;;;;;;;6.10;2.00;;;32.50;59.40;;;;;;5055173;28;20529;-77
2023/06/27 08:30:38;;;;;;;5.60;2.33;;;32.60;59.10;;;;;;5036113;28;20449;-75
2023/06/27 08:33:06;;;;;;;6.27;1.83;;;33.10;58.20;;;;;;5046792;28;20493;-75
2023/06/27 08:35:34;;;;;;;6.10;2.00;;;33.40;57.30;;;;;;5061439;28;20444;-77
2023/06/27 08:38:01;;;;;;;7.20;1.70;;;33.20;56.70;;;;;;5051404;28;20445;-75
2023/06/27 08:40:33;;;;;;;2.33;1.63;;;32.90;57.50;;;;;;5057599;28;20441;-75
2023/06/27 08:43:02;;;;;;;5.93;2.03;;;32.90;57.10;;;;;;5055424;28;20471;-74
2023/06/27 08:45:28;;;;;;;3.80;2.53;;;33.10;57.10;;;;;;5054906;28;20487;-75
2023/06/27 08:47:59;;;;;;;6.50;1.90;;;33.30;56.80;;;;;;5057318;28;20985;-77
2023/06/27 08:50:27;;;;;;;4.10;1.97;;;32.40;58.00;;;;;;5055306;28;20504;-76
2023/06/27 08:52:57;;;;;;;3.17;1.90;;;31.30;59.10;;;;;;5051769;28;20469;-77
2023/06/27 08:55:33;;;;;;;7.00;1.90;;;30.40;59.70;;;;;;5056110;28;20518;-75
2023/06/27 08:58:03;;;;;;;6.27;1.90;;;29.90;61.00;;;;;;5064007;28;20492;-75
2023/06/27 09:00:31;;;;;;;4.73;1.90;;;29.90;62.00;;;;;;5054564;28;20488;-74
2023/06/27 09:03:00;;;;;;;5.00;1.90;;;30.20;61.30;;;;;;5055904;28;20517;-76
2023/06/27 09:05:27;;;;;;;9.27;2.57;;;29.70;63.00;;;;;;5055265;28;20446;-76
2023/06/27 09:07:54;;;;;;;9.43;2.83;;;28.70;64.00;;;;;;5061626;28;20446;-75
2023/06/27 09:10:22;;;;;;;11.00;4.73;;;27.60;66.90;;;;;;5060419;28;20473;-76
2023/06/27 09:12:49;;;;;;;9.40;3.70;;;26.50;80.20;;;;;;5058100;28;21035;-76
2023/06/27 09:15:17;;;;;;;8.37;2.70;;;25.10;89.80;;;;;;5054590;28;21016;-77
2023/06/27 09:17:43;;;;;;;9.00;2.97;;;23.90;93.50;;;;;;5061276;28;20527;-78
2023/06/27 09:20:16;;;;;;;3.70;2.20;;;22.90;94.80;;;;;;5067697;28;20771;-75
2023/06/27 09:22:44;;;;;;;5.07;1.57;;;22.30;97.70;;;;;;5065859;28;20672;-78
2023/06/27 09:25:15;;;;;;;5.80;1.97;;;22.30;98.20;;;;;;5069491;28;20480;-77
2023/06/27 09:27:43;;;;;;;6.10;2.90;;;22.60;99.90;;;;;;5067268;28;20461;-76
2023/06/27 09:30:15;;;;;;;8.70;2.50;;;22.90;99.90;;;;;;5070306;28;20469;-78
2023/06/27 09:32:57;;;;;;;7.47;3.10;;;23.10;99.00;;;;;;5067030;28;20479;-76
2023/06/27 09:35:31;;;;;;;5.80;2.07;;;23.10;98.60;;;;;;5059314;28;20992;-77
2023/06/27 09:38:06;;;;;;;5.07;2.93;;;23.00;98.60;;;;;;5062805;28;20819;-76
2023/06/27 09:40:36;;;;;;;3.90;1.80;;;22.80;98.90;;;;;;5066275;28;20517;-76
2023/06/27 09:43:05;;;;;;;2.90;2.03;;;22.80;98.80;;;;;;5062378;28;20956;-75
2023/06/27 09:45:32;;;;;;;3.13;2.23;;;23.10;99.00;;;;;;5065912;28;20537;-77
2023/06/27 09:48:01;;;;;;;3.80;1.57;;;23.80;97.70;;;;;;5064630;28;20699;-75
2023/06/27 09:50:30;;;;;;;3.03;1.70;;;24.60;96.80;;;;;;5058356;28;20501;-76
2023/06/27 09:52:59;;;;;;;3.77;1.87;;;25.00;92.50;;;;;;5079584;28;20465;-76
2023/06/27 09:55:26;;;;;;;1.93;1.23;;;25.10;92.70;;;;;;5075683;28;20448;-74
2023/06/27 09:57:54;;;;;;;4.37;1.93;;;24.60;91.70;;;;;;5065108;28;20459;-76
2023/06/27 10:00:22;;;;;;;2.67;1.80;;;23.70;92.90;;;;;;5057047;28;20437;-75
2023/06/27 10:02:50;;;;;;;2.90;1.70;;;22.90;94.70;;;;;;5060057;28;20468;-76
2023/06/27 10:05:18;;;;;;;3.30;1.83;;;22.30;97.70;;;;;;5057955;28;20464;-76
2023/06/27 10:07:46;;;;;;;9.87;2.77;;;22.20;99.00;;;;;;5058226;28;20815;-78
2023/06/27 10:10:14;;;;;;;8.93;2.60;;;22.20;98.90;;;;;;5059288;28;20485;-75
2023/06/27 10:12:45;;;;;;;8.27;3.03;;;22.60;99.40;;;;;;5055251;28;20957;-76
2023/06/27 10:15:13;;;;;;;8.10;3.00;;;23.90;98.90;;;;;;5057862;28;20505;-77
2023/06/27 10:17:40;;;;;;;5.47;2.03;;;25.30;97.10;;;;;;5052911;28;20542;-75
2023/06/27 10:20:10;;;;;;;4.00;2.00;;;26.60;95.00;;;;;;5061216;28;20506;-76
2023/06/27 10:22:40;;;;;;;5.43;2.77;;;27.70;93.00;;;;;;5069205;28;20963;-75
2023/06/27 10:25:09;;;;;;;4.60;2.10;;;28.20;91.00;;;;;;5057881;28;20443;-75
2023/06/27 10:27:38;;;;;;;6.23;2.30;;;27.90;88.50;;;;;;5054318;28;20440;-76
2023/06/27 10:30:13;;;;;;;4.57;1.77;;;27.70;88.50;;;;;;5057723;28;20929;-78
2023/06/27 10:32:43;;;;;;;4.33;1.70;;;27.90;83.00;;;;;;5052008;28;20497;-75
2023/06/27 10:35:12;;;;;;;2.40;1.20;;;28.40;84.20;;;;;;5057181;28;20807;-75
2023/06/27 10:37:42;;;;;;;3.70;1.07;;;28.50;84.10;;;;;;5064896;28;20524;-74
2023/06/27 10:40:12;;;;;;;7.33;1.57;;;28.70;81.80;;;;;;5049729;28;20444;-75
2023/06/27 10:42:42;;;;;;;5.00;1.80;;;28.20;80.60;;;;;;5050327;28;21022;-76
2023/06/27 10:45:10;;;;;;;4.67;2.17;;;27.80;82.10;;;;;;5063351;28;20447;-75
2023/06/27 10:47:41;;;;;;;5.67;2.03;;;27.50;81.00;;;;;;5054202;28;20524;-76
2023/06/27 10:50:13;;;;;;;4.67;2.20;;;27.40;82.20;;;;;;5055217;28;20998;-75
2023/06/27 10:52:42;;;;;;;5.10;2.00;;;27.30;81.40;;;;;;5057418;28;20479;-75
2023/06/27 10:55:24;;;;;;;6.50;1.80;;;27.40;82.10;;;;;;5066154;28;20475;-75
2023/06/27 10:58:02;;;;;;;3.47;1.63;;;27.20;81.10;;;;;;5057713;28;20438;-74
2023/06/27 11:00:31;;;;;;;3.30;1.90;;;27.20;82.90;;;;;;5065063;28;20440;-75
2023/06/27 11:03:01;;;;;;;6.07;2.10;;;27.10;80.50;;;;;;5059467;28;20465;-73
2023/06/27 11:05:58;;;;;;;2.53;1.57;;;26.90;79.80;;;;;;5054002;28;20446;-74
2023/06/27 11:08:29;;;;;;;6.87;2.07;;;26.50;81.00;;;;;;5043759;28;20455;-75
2023/06/27 11:11:26;;;;;;;2.63;1.40;;;26.00;81.40;;;;;;5066437;28;20519;-74
2023/06/27 11:14:05;;;;;;;3.40;1.60;;;25.60;81.10;;;;;;5058393;28;20550;-73
2023/06/27 11:16:33;;;;;;;8.37;2.57;;;25.60;82.40;;;;;;5053003;28;20447;-75
2023/06/27 11:19:24;;;;;;;4.17;2.20;;;25.40;81.80;;;;;;5066508;28;20517;-75
2023/06/27 11:21:51;;;;;;;4.43;1.63;;;25.10;81.90;;;;;;5068547;28;20789;-75
2023/06/27 11:24:21;;;;;;;3.87;1.37;;;24.90;83.50;;;;;;5062069;28;21050;-74
2023/06/27 11:26:52;;;;;;;6.07;1.50;;;24.60;82.60;;;;;;5063070;28;20446;-75
2023/06/27 11:29:20;;;;;;;5.47;1.50;;;24.60;82.40;;;;;;5064351;28;20469;-74
2023/06/27 11:31:47;;;;;;;6.07;1.97;;;24.70;83.40;;;;;;5056862;28;20823;-74
2023/06/27 11:34:31;;;;;;;3.60;1.70;;;24.40;84.10;;;;;;5059827;28;20536;-75
2023/06/27 11:36:58;;;;;;;5.27;1.80;;;24.00;84.60;;;;;;5055612;28;20433;-75
2023/06/27 11:39:35;;;;;;;3.77;1.33;;;23.90;86.70;;;;;;5065000;28;20539;-74
2023/06/27 11:42:03;;;;;;;4.07;1.43;;;24.00;85.60;;;;;;5058783;28;20437;-75
2023/06/27 11:44:32;;;;;;;3.83;1.60;;;23.90;84.50;;;;;;5057753;28;20469;-75
2023/06/27 11:47:00;;;;;;;3.97;2.20;;;24.10;84.10;;;;;;5052150;28;20461;-75
2023/06/27 11:49:28;;;;;;;7.17;1.70;;;24.30;84.40;;;;;;5053876;28;20860;-74
2023/06/27 11:51:58;;;;;;;3.70;1.53;;;24.40;83.90;;;;;;5051987;28;21172;-74
2023/06/27 11:54:25;;;;;;;4.23;1.50;;;24.60;84.20;;;;;;5061545;28;20498;-76
2023/06/27 11:56:52;;;;;;;3.30;1.90;;;24.80;84.70;;;;;;5060853;28;20437;-75
2023/06/27 11:59:33;;;;;;;4.53;1.40;;;25.00;82.60;;;;;;5052864;28;20433;-75
2023/06/27 12:02:01;;;;;;;2.93;1.70;;;25.00;81.20;;;;;;5051101;28;20521;-73
2023/06/27 12:04:27;;;;;;;2.53;1.13;;;25.30;81.90;;;;;;5057551;28;20494;-74
2023/06/27 12:06:54;;;;;;;3.90;1.70;;;25.40;81.20;;;;;;5050853;28;20539;-75
2023/06/27 12:09:24;;;;;;;2.63;1.50;;;25.60;79.90;;;;;;5060577;28;20455;-74
2023/06/27 12:11:53;;;;;;;5.10;1.30;;;25.70;77.50;;;;;;5047760;28;21020;-75
2023/06/27 12:14:24;;;;;;;3.90;2.00;;;26.10;78.60;;;;;;5049401;28;20523;-73
2023/06/27 12:16:52;;;;;;;2.67;1.50;;;26.40;76.80;;;;;;5050606;28;21049;-72
2023/06/27 12:19:21;;;;;;;5.17;1.60;;;26.40;74.80;;;;;;5058424;28;20494;-74
2023/06/27 12:21:49;;;;;;;4.53;1.80;;;26.30;73.70;;;;;;5048700;28;20451;-75
2023/06/27 12:24:16;;;;;;;4.10;1.83;;;26.20;74.20;;;;;;5052501;28;20463;-76
2023/06/27 12:26:45;;;;;;;3.03;1.40;;;26.00;73.40;;;;;;5053701;28;20455;-74
2023/06/27 12:29:12;;;;;;;2.83;1.67;;;26.00;73.40;;;;;;5059324;28;20785;-74
2023/06/27 12:31:39;;;;;;;4.73;1.67;;;25.90;74.00;;;;;;5056075;28;20590;-75
2023/06/27 12:34:08;;;;;;;3.30;1.50;;;25.80;73.70;;;;;;5057269;28;20555;-76
2023/06/27 12:36:36;;;;;;;3.60;1.73;;;25.60;73.50;;;;;;5052284;28;20443;-73
2023/06/27 12:39:03;;;;;;;2.60;1.50;;;25.60;72.50;;;;;;5052109;28;20934;-75
2023/06/27 12:41:31;;;;;;;3.00;1.67;;;25.50;73.50;;;;;;5058719;28;20432;-74
2023/06/27 12:43:58;;;;;;;2.20;1.33;;;25.40;73.80;;;;;;5059328;28;20490;-76
2023/06/27 12:46:25;;;;;;;9.77;3.00;;;25.60;73.20;;;;;;5055245;28;20451;-74
2023/06/27 12:48:52;;;;;;;3.77;1.80;;;25.70;73.70;;;;;;5066485;28;21015;-73
2023/06/27 12:51:21;;;;;;;2.87;1.40;;;25.70;72.80;;;;;;5067597;28;20489;-74
2023/06/27 12:53:48;;;;;;;3.40;1.20;;;25.60;72.00;;;;;;5056414;28;20476;-75